Time;durP1;ratioP1;P1;durP2;ratioP2;P2;SDS_P1;SDS_P2;PMS_P1;PMS_P2;Temp;Humidity;BMP_temperature;BMP_pressure;BME280_temperature;BME280_humidity;BME280_pressure;Samples;Min_cycle;Max_cycle;Signal;HPM_P1;HPM_P2
2022/09/16 00:00:42;;;;;;;13.23;4.68;;;;;;;10.30;100.00;101023.78;5091935;28;20024;-47
2022/09/16 00:03:08;;;;;;;11.38;5.00;;;;;;;10.32;100.00;101012.72;5092394;28;20020;-48
2022/09/16 00:05:33;;;;;;;15.10;5.80;;;;;;;10.30;100.00;101010.91;5092660;28;20032;-44
2022/09/16 00:07:59;;;;;;;12.18;4.72;;;;;;;10.32;100.00;101012.72;5093715;28;20491;-44
2022/09/16 00:10:24;;;;;;;12.05;5.05;;;;;;;10.30;100.00;101003.19;5096207;28;20479;-47
2022/09/16 00:12:49;;;;;;;12.23;5.07;;;;;;;10.31;100.00;101007.53;5096420;28;20031;-47
2022/09/16 00:15:15;;;;;;;16.17;5.20;;;;;;;10.32;100.00;101004.13;5095210;28;20563;-44
2022/09/16 00:17:41;;;;;;;13.00;4.43;;;;;;;10.31;100.00;101003.22;5096540;28;20570;-47
2022/09/16 00:20:07;;;;;;;14.85;5.07;;;;;;;10.31;100.00;100997.22;5096268;28;20028;-45
2022/09/16 00:22:33;;;;;;;13.90;5.03;;;;;;;10.31;100.00;100994.63;5095531;28;20023;-45
2022/09/16 00:24:58;;;;;;;12.48;5.50;;;;;;;10.34;100.00;100997.31;5096331;28;20032;-44
2022/09/16 00:27:23;;;;;;;13.85;5.22;;;;;;;10.30;100.00;100996.34;5095094;28;20111;-44
2022/09/16 00:29:49;;;;;;;13.30;5.53;;;;;;;10.32;100.00;101001.56;5096079;28;20039;-43
2022/09/16 00:32:14;;;;;;;13.23;4.80;;;;;;;10.30;100.00;101000.59;5095766;28;20028;-44
2022/09/16 00:34:39;;;;;;;11.02;5.30;;;;;;;10.27;100.00;101003.09;5095483;28;20020;-44
2022/09/16 00:37:07;;;;;;;18.20;5.40;;;;;;;10.27;100.00;101005.69;5095898;28;20070;-45
2022/09/16 00:39:33;;;;;;;11.25;4.50;;;;;;;10.26;100.00;100999.63;5096141;28;20024;-44
2022/09/16 00:42:00;;;;;;;13.32;4.63;;;;;;;10.25;100.00;101002.16;5095097;28;20111;-45
2022/09/16 00:44:53;;;;;;;11.47;4.60;;;;;;;10.23;100.00;101012.41;5095728;28;20464;-49
2022/09/16 00:47:27;;;;;;;12.68;4.78;;;;;;;10.19;100.00;101003.69;5095652;28;20032;-44
2022/09/16 00:49:58;;;;;;;13.80;4.57;;;;;;;10.15;100.00;101001.84;5095087;28;20024;-45
2022/09/16 00:52:25;;;;;;;10.95;4.78;;;;;;;10.13;100.00;100998.34;5095528;28;20027;-46
2022/09/16 00:54:50;;;;;;;14.40;5.03;;;;;;;10.08;100.00;100989.59;5095580;28;20035;-44
2022/09/16 00:57:16;;;;;;;10.43;4.82;;;;;;;10.02;100.00;100989.41;5094430;28;20103;-46
2022/09/16 00:59:46;;;;;;;12.75;4.60;;;;;;;9.99;100.00;100989.28;5095721;28;20030;-44
2022/09/16 01:02:16;;;;;;;14.20;5.60;;;;;;;9.96;100.00;100991.75;5095308;28;20061;-45
2022/09/16 01:04:55;;;;;;;16.45;5.82;;;;;;;9.94;100.00;100989.13;5094832;28;20028;-44
2022/09/16 01:07:27;;;;;;;14.07;5.80;;;;;;;9.94;100.00;100990.81;5095135;28;20016;-45
2022/09/16 01:09:53;;;;;;;15.60;5.03;;;;;;;9.87;100.00;100982.88;5094577;28;20476;-45
2022/09/16 01:12:18;;;;;;;11.77;5.00;;;;;;;9.82;100.00;100984.41;5095203;28;20023;-44
2022/09/16 01:14:52;;;;;;;17.02;5.65;;;;;;;9.80;100.00;100987.75;5095404;28;20356;-45
2022/09/16 01:17:32;;;;;;;13.18;5.25;;;;;;;9.69;100.00;100985.69;5094339;28;20103;-44
2022/09/16 01:20:33;;;;;;;16.65;5.38;;;;;;;9.71;100.00;100984.06;5093817;28;20554;-45
2022/09/16 01:23:18;;;;;;;16.83;6.32;;;;;;;9.69;100.00;100990.81;5091070;28;20044;-44
2022/09/16 01:26:18;;;;;;;14.27;6.07;;;;;;;9.68;100.00;100978.81;5094343;28;20021;-46
2022/09/16 01:29:04;;;;;;;15.23;6.57;;;;;;;9.66;100.00;100984.72;5095203;28;20050;-44
2022/09/16 01:31:46;;;;;;;17.10;6.13;;;;;;;9.62;100.00;100982.84;5094249;28;20095;-45
2022/09/16 01:34:46;;;;;;;13.63;6.10;;;;;;;9.60;100.00;100984.50;5094666;28;20032;-44
2022/09/16 01:37:18;;;;;;;16.35;6.63;;;;;;;9.54;100.00;100973.16;5094524;28;20466;-44
2022/09/16 01:40:04;;;;;;;15.57;6.40;;;;;;;9.52;100.00;100974.78;5093977;28;20031;-43
2022/09/16 01:42:59;;;;;;;24.55;7.63;;;;;;;9.49;100.00;100977.28;5094903;28;20060;-46
2022/09/16 01:45:34;;;;;;;20.25;6.95;;;;;;;9.42;100.00;100975.28;5093297;28;20588;-46
2022/09/16 01:48:29;;;;;;;16.85;6.80;;;;;;;9.38;100.00;100976.00;5094625;28;20028;-46
2022/09/16 01:51:13;;;;;;;18.05;8.18;;;;;;;9.35;100.00;100973.31;5094151;28;20387;-43
2022/09/16 01:53:47;;;;;;;13.73;6.70;;;;;;;9.29;100.00;100968.81;5093780;28;20479;-48
2022/09/16 01:56:28;;;;;;;14.45;6.07;;;;;;;9.17;100.00;100984.66;5094421;28;20028;-45
2022/09/16 01:59:00;;;;;;;13.30;6.05;;;;;;;9.15;100.00;100978.59;5093844;28;20059;-45
2022/09/16 02:01:38;;;;;;;12.73;7.10;;;;;;;9.16;100.00;100980.34;5094215;28;20097;-45
2022/09/16 02:04:12;;;;;;;15.85;7.50;;;;;;;9.13;100.00;100993.09;5094274;28;20032;-44
2022/09/16 02:06:39;;;;;;;15.15;7.82;;;;;;;9.12;100.00;100988.75;5093543;28;20024;-44
2022/09/16 02:09:14;;;;;;;19.65;8.30;;;;;;;9.18;100.00;100990.69;5094034;28;20103;-46
2022/09/16 02:11:42;;;;;;;17.75;8.13;;;;;;;9.18;100.00;100995.81;5094178;28;20030;-44
2022/09/16 02:14:28;;;;;;;18.10;7.70;;;;;;;9.20;100.00;100995.06;5093011;28;20114;-44
2022/09/16 02:16:59;;;;;;;18.80;8.15;;;;;;;9.23;100.00;101000.34;5094243;28;20024;-44
2022/09/16 02:19:30;;;;;;;18.83;8.13;;;;;;;9.28;100.00;100992.78;5093803;28;20387;-46
2022/09/16 02:21:58;;;;;;;18.27;7.68;;;;;;;9.32;100.00;100999.81;5093276;28;20028;-45
2022/09/16 02:24:26;;;;;;;17.15;7.75;;;;;;;9.38;100.00;100981.16;5093596;28;20024;-46
2022/09/16 02:26:55;;;;;;;22.60;7.50;;;;;;;9.41;100.00;100998.38;5093068;28;20535;-47
2022/09/16 02:29:25;;;;;;;18.02;7.38;;;;;;;9.43;100.00;100987.34;5093731;28;20036;-45
2022/09/16 02:31:54;;;;;;;25.70;8.27;;;;;;;9.46;100.00;100992.56;5093512;28;20028;-44
2022/09/16 02:34:26;;;;;;;11.43;6.22;;;;;;;9.48;100.00;100990.94;5092652;28;20444;-44
2022/09/16 02:36:55;;;;;;;14.77;6.72;;;;;;;9.48;100.00;100990.94;5093653;28;20032;-44
2022/09/16 02:39:28;;;;;;;12.98;6.10;;;;;;;9.50;100.00;100989.31;5093635;28;20039;-44
2022/09/16 02:41:54;;;;;;;13.35;5.82;;;;;;;9.53;100.00;100981.69;5092895;28;20494;-46
2022/09/16 02:44:19;;;;;;;11.85;6.30;;;;;;;9.50;100.00;100986.75;5093412;28;20089;-43
2022/09/16 02:46:59;;;;;;;10.05;5.30;;;;;;;9.43;100.00;100986.47;5093465;28;20430;-44
2022/09/16 02:49:46;;;;;;;13.65;6.00;;;;;;;9.43;100.00;100986.47;5092480;28;20024;-44
2022/09/16 02:52:36;;;;;;;14.40;5.70;;;;;;;9.47;100.00;100991.75;5093191;28;20458;-48
2022/09/16 02:55:21;;;;;;;16.35;5.55;;;;;;;9.50;100.00;100988.41;5092622;28;20034;-48
2022/09/16 02:57:46;;;;;;;12.75;5.63;;;;;;;9.50;100.00;100980.69;5093345;28;20039;-44
2022/09/16 03:00:12;;;;;;;18.13;5.03;;;;;;;9.55;100.00;100982.63;5093216;28;20021;-45
2022/09/16 03:02:37;;;;;;;14.23;4.85;;;;;;;9.56;100.00;100979.22;5092639;28;20471;-44
2022/09/16 03:05:03;;;;;;;11.80;5.30;;;;;;;9.58;100.00;100987.03;5093084;28;20035;-45
2022/09/16 03:07:29;;;;;;;13.88;4.85;;;;;;;9.59;100.00;100990.47;5093200;28;20479;-46
2022/09/16 03:09:54;;;;;;;18.85;5.18;;;;;;;9.62;100.00;100988.88;5092532;28;20028;-44
2022/09/16 03:12:22;;;;;;;15.93;5.10;;;;;;;9.65;100.00;100985.53;5092873;28;20032;-45
2022/09/16 03:15:07;;;;;;;14.90;4.32;;;;;;;9.68;100.00;100986.53;5093310;28;20020;-45
2022/09/16 03:17:51;;;;;;;10.23;4.30;;;;;;;9.72;100.00;100984.91;5092722;28;20031;-44
2022/09/16 03:20:36;;;;;;;13.75;4.30;;;;;;;9.73;100.00;100984.09;5092885;28;20063;-45
2022/09/16 03:23:23;;;;;;;8.93;4.20;;;;;;;9.76;100.00;100971.34;5092759;28;20039;-45
2022/09/16 03:26:05;;;;;;;13.05;4.60;;;;;;;9.74;100.00;100983.28;5093143;28;20123;-44
2022/09/16 03:28:36;;;;;;;13.88;3.70;;;;;;;9.71;100.00;100980.63;5093207;28;20082;-48
2022/09/16 03:31:09;;;;;;;11.40;3.78;;;;;;;9.75;100.00;100989.28;5092070;28;20066;-44
2022/09/16 03:33:45;;;;;;;10.55;3.20;;;;;;;9.72;100.00;100979.75;5092980;28;20027;-44
2022/09/16 03:36:15;;;;;;;7.85;3.20;;;;;;;9.74;100.00;100985.84;5092882;28;20027;-44
2022/09/16 03:38:42;;;;;;;11.20;3.35;;;;;;;9.75;100.00;100979.00;5092171;28;20556;-44
2022/09/16 03:41:09;;;;;;;9.10;3.08;;;;;;;9.76;100.00;100968.78;5095733;28;20039;-45
2022/09/16 03:43:34;;;;;;;8.60;3.42;;;;;;;9.77;100.00;100967.94;5095678;28;20039;-43
2022/09/16 03:45:59;;;;;;;10.68;2.90;;;;;;;9.80;100.00;100962.91;5096005;28;20040;-45
2022/09/16 03:48:25;;;;;;;8.90;2.45;;;;;;;9.83;100.00;100962.13;5096820;28;20514;-45
2022/09/16 03:50:50;;;;;;;10.88;3.05;;;;;;;9.81;100.00;100969.81;5096695;28;20032;-45
2022/09/16 03:53:15;;;;;;;8.50;3.13;;;;;;;9.77;100.00;100975.66;5095678;28;20420;-45
2022/09/16 03:55:40;;;;;;;8.10;2.78;;;;;;;9.71;100.00;100978.03;5096745;28;20042;-45
2022/09/16 03:58:06;;;;;;;9.57;3.17;;;;;;;9.70;100.00;100978.84;5096579;28;20028;-47
2022/09/16 04:00:31;;;;;;;10.95;3.00;;;;;;;9.68;100.00;100980.47;5095757;28;20027;-45
2022/09/16 04:02:59;;;;;;;12.95;3.20;;;;;;;9.64;100.00;100982.06;5096267;28;20046;-45
2022/09/16 04:05:25;;;;;;;7.45;3.00;;;;;;;9.65;100.00;100972.66;5095609;28;20379;-46
2022/09/16 04:07:50;;;;;;;10.27;3.42;;;;;;;9.65;100.00;100977.81;5096626;28;20020;-44
2022/09/16 04:10:16;;;;;;;10.95;3.63;;;;;;;9.63;100.00;100982.03;5096282;28;20543;-44
2022/09/16 04:12:41;;;;;;;13.93;3.70;;;;;;;9.61;100.00;100978.53;5095729;28;20020;-45
2022/09/16 04:15:07;;;;;;;10.88;3.58;;;;;;;9.61;100.00;100975.97;5096032;28;20066;-48
2022/09/16 04:17:32;;;;;;;10.85;3.67;;;;;;;9.59;100.00;100975.03;5096266;28;20040;-46
2022/09/16 04:19:58;;;;;;;14.95;4.25;;;;;;;9.58;100.00;100975.84;5095755;28;20020;-48
2022/09/16 04:22:23;;;;;;;12.93;4.57;;;;;;;9.54;100.00;100978.31;5096032;28;20036;-47
2022/09/16 04:24:48;;;;;;;17.98;4.18;;;;;;;9.57;100.00;100985.25;5096486;28;20031;-44
2022/09/16 04:27:14;;;;;;;12.07;4.10;;;;;;;9.56;100.00;100986.06;5095173;28;20060;-46
2022/09/16 04:29:39;;;;;;;14.10;4.18;;;;;;;9.53;100.00;100984.28;5096062;28;20111;-44
2022/09/16 04:32:04;;;;;;;11.65;3.90;;;;;;;9.57;100.00;100985.25;5096039;28;20383;-44
2022/09/16 04:34:31;;;;;;;14.38;3.88;;;;;;;9.58;100.00;100996.41;5095382;28;20024;-44
2022/09/16 04:36:57;;;;;;;10.40;3.58;;;;;;;9.61;100.00;100988.81;5096112;28;20027;-44
2022/09/16 04:39:22;;;;;;;10.18;4.05;;;;;;;9.65;100.00;100990.69;5095786;28;20066;-45
2022/09/16 04:41:48;;;;;;;11.63;3.30;;;;;;;9.67;100.00;100989.03;5095056;28;20471;-43
2022/09/16 04:44:14;;;;;;;11.10;3.25;;;;;;;9.72;100.00;100983.22;5095543;28;20028;-44
2022/09/16 04:46:39;;;;;;;8.30;3.03;;;;;;;9.76;100.00;100981.66;5095724;28;20046;-45
2022/09/16 04:49:05;;;;;;;11.50;3.17;;;;;;;9.78;100.00;100973.97;5094845;28;20107;-44
2022/09/16 04:51:31;;;;;;;9.10;2.88;;;;;;;9.79;100.00;100968.88;5095811;28;20020;-45
2022/09/16 04:53:58;;;;;;;9.95;2.70;;;;;;;9.81;100.00;100958.63;5095464;28;20032;-44
2022/09/16 04:56:25;;;;;;;10.50;2.80;;;;;;;9.79;100.00;100953.44;5094572;28;20474;-44
2022/09/16 04:58:56;;;;;;;13.32;3.25;;;;;;;9.76;100.00;100950.75;5095557;28;20146;-44
2022/09/16 05:01:24;;;;;;;7.90;2.35;;;;;;;9.75;100.00;100964.44;5095414;28;20021;-44
2022/09/16 05:03:51;;;;;;;11.75;2.80;;;;;;;9.71;100.00;100966.03;5094765;28;20112;-46
2022/09/16 05:06:18;;;;;;;;;;;;;;;9.79;100.00;100976.59;5095408;28;20510;-45
2022/09/16 05:08:43;;;;;;;8.55;2.40;;;;;;;9.73;100.00;100978.94;5094737;28;19958;-48
2022/09/16 05:11:11;;;;;;;10.40;2.88;;;;;;;9.69;100.00;100983.09;5095025;28;20028;-46
2022/09/16 05:13:37;;;;;;;;;;;;;;;9.76;100.00;100991.94;5095931;28;20075;-44
2022/09/16 05:16:16;;;;;;;6.75;2.60;;;;;;;9.67;100.00;100982.19;5094409;28;20323;-44
2022/09/16 05:18:44;;;;;;;7.13;2.63;;;;;;;9.65;100.00;100990.69;5095641;28;20039;-47
2022/09/16 05:21:12;;;;;;;4.82;2.30;;;;;;;9.62;100.00;100982.84;5095002;28;20035;-46
2022/09/16 05:23:37;;;;;;;8.70;2.22;;;;;;;9.62;100.00;100987.97;5094187;28;20047;-44
2022/09/16 05:26:06;;;;;;;10.02;2.28;;;;;;;9.64;100.00;100996.66;5095004;28;20375;-44
2022/09/16 05:28:33;;;;;;;9.68;2.17;;;;;;;9.66;100.00;100995.00;5095161;28;20030;-44
2022/09/16 05:31:13;;;;;;;7.25;1.85;;;;;;;9.67;100.00;100991.59;5094311;28;20023;-45
2022/09/16 05:33:41;;;;;;;8.32;2.30;;;;;;;9.65;100.00;100983.81;5094937;28;20028;-44
2022/09/16 05:36:10;;;;;;;10.63;2.10;;;;;;;9.64;100.00;100983.78;5094537;28;20058;-48
2022/09/16 05:38:35;;;;;;;6.25;1.67;;;;;;;9.66;100.00;100984.72;5094221;28;20020;-44
2022/09/16 05:41:02;;;;;;;6.20;1.95;;;;;;;9.69;100.00;100984.81;5094212;28;20024;-44
2022/09/16 05:43:28;;;;;;;4.63;2.00;;;;;;;9.69;100.00;100984.81;5096586;28;20360;-44
2022/09/16 05:45:54;;;;;;;10.75;2.45;;;;;;;9.69;100.00;100982.25;5093475;28;20552;-43
2022/09/16 05:48:21;;;;;;;6.68;1.95;;;;;;;9.69;100.00;100987.38;5094275;28;20023;-47
2022/09/16 05:51:01;;;;;;;8.80;2.45;;;;;;;9.69;100.00;100995.13;5094004;28;20082;-44
2022/09/16 05:53:28;;;;;;;7.07;2.13;;;;;;;9.71;100.00;100996.91;5094055;28;20031;-47
2022/09/16 05:56:05;;;;;;;9.77;2.35;;;;;;;9.72;100.00;100993.53;5094634;28;20099;-44
2022/09/16 05:58:33;;;;;;;11.38;2.75;;;;;;;9.74;100.00;100993.56;5093624;28;20422;-45
2022/09/16 06:01:04;;;;;;;8.30;2.72;;;;;;;9.77;100.00;100992.81;5094367;28;20020;-44
2022/09/16 06:03:31;;;;;;;11.02;2.90;;;;;;;9.81;100.00;100997.25;5094200;28;20432;-48
2022/09/16 06:06:06;;;;;;;10.23;2.90;;;;;;;9.84;100.00;100995.66;5093036;28;20078;-44
2022/09/16 06:08:33;;;;;;;8.15;2.88;;;;;;;9.85;100.00;100989.69;5094139;28;20039;-47
2022/09/16 06:11:07;;;;;;;10.70;2.80;;;;;;;9.88;100.00;100997.50;5094185;28;20052;-46
2022/09/16 06:13:33;;;;;;;11.50;3.28;;;;;;;9.95;100.00;100998.59;5093280;28;20020;-46
2022/09/16 06:16:00;;;;;;;9.55;2.85;;;;;;;10.02;100.00;101017.72;5093993;28;20026;-44
2022/09/16 06:18:27;;;;;;;12.02;3.35;;;;;;;10.04;100.00;101003.19;5093828;28;20028;-44
2022/09/16 06:20:52;;;;;;;11.25;3.58;;;;;;;10.04;100.00;100998.94;5093291;28;20421;-44
2022/09/16 06:23:19;;;;;;;11.30;3.38;;;;;;;10.03;100.00;101006.56;5093607;28;20502;-44
2022/09/16 06:25:44;;;;;;;10.52;2.88;;;;;;;9.96;100.00;101007.22;5093962;28;20024;-44
2022/09/16 06:28:10;;;;;;;11.82;3.38;;;;;;;9.98;100.00;101002.97;5092883;28;20123;-44
2022/09/16 06:30:39;;;;;;;9.13;2.90;;;;;;;9.99;100.00;101007.31;5094028;28;20024;-46
2022/09/16 06:33:05;;;;;;;6.63;2.78;;;;;;;10.10;100.00;101003.41;5092667;28;20374;-44
2022/09/16 06:35:33;;;;;;;9.07;3.13;;;;;;;10.20;100.00;101010.63;5093853;28;20032;-45
2022/09/16 06:37:58;;;;;;;10.50;2.95;;;;;;;10.26;100.00;101015.09;5093603;28;20357;-44
2022/09/16 06:40:24;;;;;;;8.05;3.00;;;;;;;10.35;100.00;101025.75;5092664;28;20467;-44
2022/09/16 06:42:53;;;;;;;10.88;2.80;;;;;;;10.43;100.00;101028.59;5093505;28;20035;-45
2022/09/16 06:45:18;;;;;;;10.73;3.00;;;;;;;10.50;100.00;101025.38;5093280;28;20040;-43
2022/09/16 06:47:44;;;;;;;5.15;2.35;;;;;;;10.50;100.00;101025.38;5109647;28;20039;-44
2022/09/16 06:50:09;;;;;;;12.85;3.20;;;;;;;10.47;100.00;101019.22;5113380;28;20015;-45
2022/09/16 06:52:34;;;;;;;11.43;2.58;;;;;;;10.41;100.00;101017.34;5100476;28;20028;-45
2022/09/16 06:55:00;;;;;;;6.65;2.10;;;;;;;10.32;100.00;101023.03;5109035;28;20084;-45
2022/09/16 06:57:25;;;;;;;7.32;2.20;;;;;;;10.27;100.00;101019.41;5113181;28;20457;-43
2022/09/16 06:59:51;;;;;;;7.05;2.15;;;;;;;10.19;100.00;101016.59;5113409;28;20101;-43
2022/09/16 07:02:17;;;;;;;15.05;2.30;;;;;;;10.27;100.00;101023.72;5112417;28;20072;-45
2022/09/16 07:04:43;;;;;;;8.65;2.58;;;;;;;10.33;100.00;101019.63;5113063;28;20127;-44
2022/09/16 07:07:08;;;;;;;12.52;2.60;;;;;;;10.46;100.00;101023.53;5112707;28;20046;-43
2022/09/16 07:09:33;;;;;;;8.95;2.90;;;;;;;10.50;100.00;101020.22;5112568;28;20016;-45
2022/09/16 07:11:59;;;;;;;10.35;2.63;;;;;;;10.60;100.00;101023.09;5113270;28;20112;-44
2022/09/16 07:14:26;;;;;;;8.70;2.33;;;;;;;10.66;100.00;101021.56;5107588;28;20019;-44
2022/09/16 07:16:51;;;;;;;7.63;2.47;;;;;;;10.77;100.00;101019.34;5112383;28;20027;-46
2022/09/16 07:19:17;;;;;;;9.48;2.50;;;;;;;10.84;100.00;101016.13;5098822;28;20032;-43
2022/09/16 07:21:42;;;;;;;6.88;2.03;;;;;;;10.96;100.00;101022.50;5100853;28;20020;-43
2022/09/16 07:24:09;;;;;;;8.60;2.20;;;;;;;11.02;100.00;101030.44;5096834;28;20525;-43
2022/09/16 07:26:36;;;;;;;8.20;2.10;;;;;;;11.11;100.00;101025.53;5111375;28;20386;-43
2022/09/16 07:29:03;;;;;;;8.15;2.28;;;;;;;11.25;100.00;101025.09;5110073;28;20489;-43
2022/09/16 07:31:31;;;;;;;8.55;1.80;;;;;;;11.26;100.00;101035.47;5111483;28;20149;-43
2022/09/16 07:33:58;;;;;;;8.10;1.90;;;;;;;11.36;100.00;101031.41;5112918;28;20035;-43
2022/09/16 07:36:26;;;;;;;7.63;1.88;;;;;;;11.52;100.00;101033.63;5098423;28;20483;-44
2022/09/16 07:38:53;;;;;;;7.88;1.98;;;;;;;11.80;100.00;101042.16;5105671;28;20383;-43
2022/09/16 07:41:22;;;;;;;8.00;1.95;;;;;;;11.89;100.00;101050.97;5104236;28;20498;-43
2022/09/16 07:43:48;;;;;;;9.35;1.67;;;;;;;11.83;100.00;101038.78;5101334;28;20474;-42
2022/09/16 07:46:18;;;;;;;9.43;2.08;;;;;;;11.78;100.00;101043.81;5103749;28;20097;-43
2022/09/16 07:48:45;;;;;;;7.55;2.10;;;;;;;11.75;100.00;101042.84;5108610;28;20016;-44
2022/09/16 07:51:13;;;;;;;7.95;1.65;;;;;;;11.68;100.00;101034.06;5097350;28;20019;-43
2022/09/16 07:53:39;;;;;;;8.70;1.92;;;;;;;11.66;100.00;101025.41;5102725;28;20081;-44
2022/09/16 07:56:10;;;;;;;9.55;2.42;;;;;;;11.55;100.00;101031.97;5112175;28;20019;-46
2022/09/16 07:58:37;;;;;;;12.27;2.97;;;;;;;11.45;100.00;101041.16;5110534;28;20028;-43
2022/09/16 08:01:02;;;;;;;8.32;2.53;;;;;;;11.41;100.00;101037.59;5097627;28;20028;-44
2022/09/16 08:03:27;;;;;;;11.43;2.88;;;;;;;11.51;100.00;101049.06;5112659;28;20110;-45
2022/09/16 08:05:58;;;;;;;10.20;2.53;;;;;;;11.57;100.00;101046.69;5101845;28;20054;-43
2022/09/16 08:08:23;;;;;;;11.13;2.65;;;;;;;11.88;100.00;101051.81;5103942;28;20115;-45
2022/09/16 08:10:55;;;;;;;7.55;2.42;;;;;;;11.95;100.00;101053.75;5105654;28;20458;-44
2022/09/16 08:13:21;;;;;;;9.85;2.97;;;;;;;12.04;100.00;101050.56;5106782;28;20031;-45
2022/09/16 08:15:46;;;;;;;7.35;3.00;;;;;;;12.29;100.00;101049.47;5110273;28;20031;-44
2022/09/16 08:18:12;;;;;;;8.57;3.78;;;;;;;12.23;100.00;101052.81;5112321;28;20372;-44
2022/09/16 08:20:37;;;;;;;6.75;2.72;;;;;;;12.39;100.00;101058.38;5107012;28;20048;-43
2022/09/16 08:23:03;;;;;;;7.88;2.97;;;;;;;12.45;100.00;101059.38;5106310;28;20113;-44
2022/09/16 08:25:28;;;;;;;8.18;3.15;;;;;;;12.69;100.00;101058.22;5092856;28;20379;-46
2022/09/16 08:27:53;;;;;;;9.93;2.50;;;;;;;12.70;100.00;101060.00;5103904;28;20054;-46
2022/09/16 08:30:19;;;;;;;8.00;2.42;;;;;;;12.80;100.00;101061.09;5115206;28;20031;-44
2022/09/16 08:32:44;;;;;;;10.30;2.58;;;;;;;12.87;100.00;101054.34;5114557;28;20040;-48
2022/09/16 08:35:10;;;;;;;9.75;2.38;;;;;;;12.86;100.00;101053.50;5115480;28;20018;-45
2022/09/16 08:37:35;;;;;;;8.25;2.58;;;;;;;13.02;100.00;101055.56;5115694;28;20070;-45
2022/09/16 08:40:03;;;;;;;8.43;1.95;;;;;;;12.92;99.22;101060.50;5105030;28;20043;-43
2022/09/16 08:42:40;;;;;;;7.35;2.13;;;;;;;13.14;100.00;101060.16;5108000;28;20035;-43
2022/09/16 08:45:27;;;;;;;7.82;2.00;;;;;;;13.27;99.48;101070.78;5104001;28;20047;-43
2022/09/16 08:48:06;;;;;;;6.00;1.90;;;;;;;13.56;98.12;101068.84;5114868;28;20024;-44
2022/09/16 08:50:36;;;;;;;11.98;2.15;;;;;;;13.62;96.14;101053.44;5115388;28;20359;-44
2022/09/16 08:53:06;;;;;;;7.18;2.17;;;;;;;13.74;96.07;101063.19;5115317;28;20524;-43
2022/09/16 08:55:36;;;;;;;8.27;1.95;;;;;;;13.64;93.46;101062.09;5115309;28;20054;-44
2022/09/16 08:58:24;;;;;;;11.02;2.17;;;;;;;13.69;92.32;101064.81;5115558;28;20066;-43
2022/09/16 09:00:57;;;;;;;5.72;1.58;;;;;;;13.80;93.79;101065.91;5104124;28;20039;-42
2022/09/16 09:03:44;;;;;;;8.30;1.92;;;;;;;13.83;94.27;101068.53;5115134;28;20898;-43
2022/09/16 09:06:29;;;;;;;;;;;;;;;13.98;92.70;101069.66;5115572;28;20050;-43
2022/09/16 09:09:01;;;;;;;7.47;1.55;;;;;;;14.19;88.29;101071.81;5114355;28;20314;-44
2022/09/16 09:11:46;;;;;;;5.10;1.30;;;;;;;14.54;87.51;101068.06;5115342;28;20024;-43
2022/09/16 09:14:31;;;;;;;8.15;1.50;;;;;;;14.87;83.56;101066.91;5115165;28;20028;-43
2022/09/16 09:17:28;;;;;;;7.43;1.52;;;;;;;14.76;84.52;101065.03;5101126;28;20027;-43
2022/09/16 09:20:17;;;;;;;6.75;1.38;;;;;;;14.66;82.26;101063.13;5104681;28;20061;-44
2022/09/16 09:23:03;;;;;;;8.88;1.50;;;;;;;15.09;84.02;101069.00;5108540;28;20040;-46
2022/09/16 09:25:41;;;;;;;6.80;1.25;;;;;;;15.17;76.93;101076.88;5114947;28;20028;-43
2022/09/16 09:28:12;;;;;;;5.78;1.20;;;;;;;15.50;77.62;101074.72;5114963;28;20081;-43
2022/09/16 09:30:49;;;;;;;7.20;1.40;;;;;;;15.64;73.72;101075.78;5095901;28;20040;-44
2022/09/16 09:34:02;;;;;;;6.43;1.05;;;;;;;15.89;73.86;101070.88;5102957;28;20033;-44
2022/09/16 09:37:04;;;;;;;4.90;1.00;;;;;;;16.15;74.23;101071.16;5104237;28;20039;-43
2022/09/16 09:39:56;;;;;;;4.72;1.17;;;;;;;16.58;73.82;101102.78;5100867;28;20032;-43
2022/09/16 09:42:31;;;;;;;4.68;0.65;;;;;;;15.39;68.34;101108.31;5109666;28;20077;-43
2022/09/16 09:45:13;;;;;;;4.68;0.55;;;;;;;13.86;72.38;101118.69;5094644;28;20055;-44
2022/09/16 09:47:46;;;;;;;5.53;0.60;;;;;;;12.63;76.37;101118.44;5110173;28;20471;-44
2022/09/16 09:50:23;;;;;;;3.40;0.73;;;;;;;11.96;81.22;101108.06;5105330;28;20020;-43
2022/09/16 09:53:01;;;;;;;3.33;0.60;;;;;;;11.59;86.54;101111.25;5102371;28;20089;-43
2022/09/16 09:55:31;;;;;;;3.90;0.75;;;;;;;11.30;90.24;101114.69;5114562;28;20035;-44
2022/09/16 09:58:05;;;;;;;3.95;0.68;;;;;;;11.15;91.90;101117.66;5102816;28;20055;-43
2022/09/16 10:00:30;;;;;;;4.93;0.75;;;;;;;11.00;91.76;101110.34;5104464;28;20049;-43
2022/09/16 10:03:12;;;;;;;3.97;0.77;;;;;;;10.95;94.09;101100.69;5097306;28;20020;-44
2022/09/16 10:05:38;;;;;;;4.47;1.00;;;;;;;10.75;93.90;101098.34;5113630;28;20023;-43
2022/09/16 10:08:15;;;;;;;6.00;1.13;;;;;;;10.70;95.69;101099.88;5103940;28;20360;-44
2022/09/16 10:11:00;;;;;;;3.83;0.98;;;;;;;10.68;96.61;101109.28;5101247;28;20051;-44
2022/09/16 10:13:28;;;;;;;7.18;1.13;;;;;;;10.43;95.67;101105.88;5106985;28;20073;-43
2022/09/16 10:16:13;;;;;;;5.78;1.15;;;;;;;10.36;99.81;101094.47;5111051;28;20054;-43
2022/09/16 10:18:38;;;;;;;7.30;1.40;;;;;;;10.19;100.00;101083.56;5104486;28;20020;-44
2022/09/16 10:21:06;;;;;;;6.45;1.33;;;;;;;10.20;100.00;101087.88;5112939;28;20027;-44
2022/09/16 10:23:32;;;;;;;;;;;;;;;10.38;100.00;101094.53;5106610;28;20070;-45
2022/09/16 10:26:19;;;;;;;6.90;1.20;;;;;;;10.46;100.00;101089.66;5111425;28;20320;-44
2022/09/16 10:28:56;;;;;;;5.15;1.00;;;;;;;10.65;100.00;101092.00;5113661;28;20042;-43
2022/09/16 10:31:24;;;;;;;4.93;1.20;;;;;;;11.02;100.00;101090.59;5113463;28;20030;-44
2022/09/16 10:33:50;;;;;;;4.45;0.82;;;;;;;12.27;100.00;101095.09;5113110;28;20015;-44
2022/09/16 10:36:21;;;;;;;4.32;0.90;;;;;;;13.17;91.34;101085.25;5113483;28;20395;-43
2022/09/16 10:38:56;;;;;;;6.32;0.95;;;;;;;14.45;88.38;101080.03;5113494;28;20031;-43
2022/09/16 10:41:25;;;;;;;3.60;1.00;;;;;;;15.06;80.25;101084.50;5112108;28;20019;-44
2022/09/16 10:43:52;;;;;;;6.03;1.00;;;;;;;16.03;81.62;101082.31;5104452;28;20038;-43
2022/09/16 10:46:18;;;;;;;6.25;1.35;;;;;;;16.52;74.80;101075.84;5112183;28;20050;-44
2022/09/16 10:48:45;;;;;;;2.05;0.90;;;;;;;17.71;68.23;101074.88;5109280;28;20032;-43
2022/09/16 10:51:29;;;;;;;5.22;1.00;;;;;;;18.14;69.76;101079.38;5109157;28;20076;-45
2022/09/16 10:53:57;;;;;;;3.50;0.75;;;;;;;18.01;68.07;101080.22;5112543;28;20027;-43
2022/09/16 10:56:28;;;;;;;3.13;0.95;;;;;;;18.52;68.23;101075.94;5112683;28;20394;-44
2022/09/16 10:59:10;;;;;;;5.03;0.77;;;;;;;19.27;68.26;101071.53;5111765;28;20102;-44
2022/09/16 11:01:51;;;;;;;5.55;1.13;;;;;;;18.86;62.67;101065.50;5104531;28;20023;-44
2022/09/16 11:04:54;;;;;;;7.20;1.10;;;;;;;18.95;66.17;101069.00;5111583;27;20114;-44
2022/09/16 11:07:44;;;;;;;3.72;0.90;;;;;;;17.88;68.75;101072.34;5109286;28;20035;-44
2022/09/16 11:10:35;;;;;;;5.72;1.42;;;;;;;16.83;69.09;101084.78;5103577;28;20474;-43
2022/09/16 11:13:22;;;;;;;7.68;1.20;;;;;;;15.96;73.57;101077.91;5110937;28;20059;-44
2022/09/16 11:16:04;;;;;;;6.38;1.30;;;;;;;15.59;76.49;101080.03;5102233;28;20035;-43
2022/09/16 11:18:41;;;;;;;4.78;1.38;;;;;;;14.84;79.74;101088.50;5113110;28;20032;-47
2022/09/16 11:21:27;;;;;;;4.63;1.30;;;;;;;14.45;83.88;101085.22;5097881;28;20386;-43
2022/09/16 11:24:04;;;;;;;6.55;1.30;;;;;;;14.01;84.15;101087.88;5112807;28;20084;-44
2022/09/16 11:26:55;;;;;;;6.38;1.63;;;;;;;13.78;86.51;101083.13;5112610;28;20486;-44
2022/09/16 11:29:46;;;;;;;7.50;1.58;;;;;;;14.21;84.01;101077.03;5108315;28;20028;-44
2022/09/16 11:32:50;;;;;;;8.77;1.77;;;;;;;14.91;82.97;101079.06;5110518;28;20036;-44
2022/09/16 11:35:39;;;;;;;6.63;1.33;;;;;;;16.01;79.01;101078.84;5090208;28;20414;-43
2022/09/16 11:38:15;;;;;;;6.00;1.55;;;;;;;17.13;74.08;101085.00;5104550;28;20459;-44
2022/09/16 11:40:49;;;;;;;7.10;1.27;;;;;;;17.74;70.14;101079.22;5109862;28;20039;-44